Disclaimer

Please do not use the information listed here in-flight or in-navigation, as they are not provided to us by the airports but are provided by volunteers, so they might be outdated.

Search


Regions


Airport information page

Radio informations:
Tower (TWR) - 119.9 MHz
RDO - 5859 MHz
Ground (GND) - 121.9 MHz
RADAR - 124.3 MHz

Airport informations:
Latitude: 25° 40' 15.70" N
Longitude: 032° 42' 23.70" E
Elevation: 294 feet - 90 meters
Operating hours: UNKNOWN
Operating agency: Civil government, landing fees and diplomatic clearance may be required
Timezone: UTC+2(+3DT) - Dates notified by NOTAM
Fuel: Jet A1, without icing nhibitor.

100/130 MIL Spec, low lead, aviation gasoline (BLUE)

Runway information:
02/20 - 9843 x 148 feet< - >3000 x 45 meters

Recent METARs:
HELX 160000Z 00000KT CAVOK 13/04 Q1016 NOSIG
HELX 160100Z 00000KT CAVOK 12/05 Q1016 NOSIG
HELX 160200Z 00000KT CAVOK 11/06 Q1016 NOSIG

Airport on the map: